Weather at Bendigo Airport

Public forecast

Using degrees Celsius for public forecast. Weather courtesy of forecast.io.

Closest aviation weather report (METAR) to Bendigo Airport

Closest report is Melbourne International Airport, 61.2 nm (113.3 km) SSE.

2022/12/03 02:30 (retrieved 29 minutes ago)

YMML 030230Z 03008KT 360V060 CAVOK 28/14 Q1014

Closest aviation forecast (TAF) to Bendigo Airport

Forecast is more than 6 hours old.

Closest forecast is Nouméa Magenta Airport, 1,441.1 nm (2,668.9 km) ENE.

2022/12/02 18:00 (retrieved 9 hours ago)

TAF NWWM 021700Z 0218/0318 29010KT 9999 FEW045 TEMPO 0300/0309 4500 SHRA FEW020CB PROB40 TEMPO 0303/0307 1500 TSRA BKN012 SCT018CB